Flight Track Log - Related Links

Times and Time Zones

All times are in EDT time to prevent confusion due to time zone crossing. See the N735YG flight status page for this flight to view local times or setup timezone preferences in your user account.

Time Position Orientation Groundspeed Altitude Reporting Facility
EDT Latitude Longitude Course Direction KTS MPH feet Rate Location/Type
Sat 01:41:40 PM 41.7583 -83.7544 298° West 147 169 6,400  Level Chicago Center
Sat 01:42:42 PM 41.7772 -83.8031 298° West 147 169 6,400  Level Chicago Center
Sat 01:43:44 PM 41.7953 -83.8531 296° West 148 170 6,400  Level Chicago Center
Sat 01:44:46 PM 41.8128 -83.9019 296° West 148 170 6,400  Level Chicago Center
Sat 01:45:48 PM 41.8347 -83.9600 297° West 146 168 6,400  Level Chicago Center
Sat 01:46:50 PM 41.8525 -84.0072 297° West 145 167 6,400  Level Chicago Center
Sat 01:47:52 PM 41.8711 -84.0550 298° West 144 166 6,400  Level Chicago Center
Sat 01:48:53 PM 41.8889 -84.1036 296° West 145 167 6,400  Level Chicago Center
Sat 01:49:55 PM 41.9069 -84.1514 297° West 145 167 6,400  Level Chicago Center
Sat 01:50:57 PM 41.9239 -84.2006 295° West 145 167 6,400  Level Chicago Center
Sat 01:51:59 PM 41.9461 -84.2583 297° West 145 167 6,400  Level Chicago Center
Sat 01:53:01 PM 41.9636 -84.3056 297° West 144 166 6,400  Level Chicago Center
Sat 01:54:03 PM 41.9803 -84.3539 295° West 144 166 6,400  Level Chicago Center
Sat 01:55:05 PM 41.9983 -84.4017 297° West 143 165 6,400  Level Chicago Center
Sat 01:56:07 PM 42.0167 -84.4494 297° West 144 166 6,400  Level Chicago Center
Sat 01:57:09 PM 42.0347 -84.4981 297° West 145 167 6,400  Level Chicago Center
Sat 01:58:11 PM 42.0550 -84.5569 295° West 145 167 6,400  Level Chicago Center
Sat 01:59:13 PM 42.0731 -84.6039 297° West 144 166 6,400 -194 Level Chicago Center
Sat 02:00:15 PM 42.0917 -84.6556 296° West 147 169 6,000 -387 Descending Chicago Center
Sat 02:01:17 PM 42.1108 -84.7083 296° West 152 175 5,600 -435 Descending Chicago Center
Sat 02:02:19 PM 42.1294 -84.7600 296° West 154 177 5,100 -339 Descending Chicago Center
Sat 02:03:21 PM 42.1483 -84.8086 298° West 152 175 4,900 -242 Descending Chicago Center
Sat 02:04:23 PM 42.1675 -84.8656 294° West 144 166 4,600 -387 Descending Chicago Center
Sat 02:05:25 PM 42.1853 -84.9181 295° West 151 174 4,100 -435 Descending Chicago Center
Sat 02:06:27 PM 42.1906 -84.9717 278° West 158 182 3,700 -387 Descending Chicago Center
Sat 02:07:29 PM 42.1872 -85.0272 265° West 154 177 3,300 -387 Descending Chicago Center
Sat 02:08:31 PM 42.2131 -85.0719 308° West 152 175 2,900 -339 Descending Chicago Center
Sat 02:09:33 PM 42.2392 -85.1206 306° West 141 162 2,600 -194 Descending Chicago Center
Sat 02:10:35 PM 42.2611 -85.1667 303° West 142 163 2,500 -339 Descending Chicago Center
Sat 02:11:37 PM 42.2850 -85.2125 305° West 145 167 1,900 -435 Descending Chicago Center
Sat 02:12:39 PM 42.3094 -85.2556 308° West 146 168 1,600 -194 Descending Chicago Center
Sat 02:13:41 PM 42.3228 -85.2889 298° West 116 133 1,500 -145 Descending Chicago Center
Sat 02:14:43 PM 42.3344 -85.3075 310° West 87 100 1,300 -96 Descending Chicago Center
Sat 02:15:46 PM 42.3258 -85.2769 111° Southeast 86 99 1,300  Level Chicago Center

Login

Don't have an account? Register now (free) for customized features, flight alerts, and more!